createdAt,value
2022-11-23T00:01:40.340Z,1.94
2022-11-23T00:04:11.698Z,1.99
2022-11-23T00:06:40.866Z,2.01
2022-11-23T00:09:12.604Z,1.98
2022-11-23T00:11:41.279Z,1.94
2022-11-23T00:14:09.851Z,1.89
2022-11-23T00:16:38.487Z,1.88
2022-11-23T00:19:07.068Z,1.90
2022-11-23T00:21:35.683Z,1.88
2022-11-23T00:24:04.394Z,1.87
2022-11-23T00:26:36.910Z,1.85
2022-11-23T00:29:05.869Z,1.85
2022-11-23T00:31:34.553Z,1.85
2022-11-23T00:34:03.387Z,1.88
2022-11-23T00:36:32.026Z,1.93
2022-11-23T00:39:02.052Z,1.96
2022-11-23T00:41:30.704Z,1.95
2022-11-23T00:44:00.994Z,1.95
2022-11-23T00:46:29.966Z,1.96
2022-11-23T00:49:00.521Z,1.97
2022-11-23T00:51:31.703Z,1.97
2022-11-23T00:54:01.650Z,1.94
2022-11-23T00:56:32.278Z,1.93
2022-11-23T00:59:04.077Z,1.96
2022-11-23T01:01:34.877Z,1.97
2022-11-23T01:04:05.600Z,1.98
2022-11-23T01:06:36.085Z,2.00
2022-11-23T01:09:10.348Z,1.93
2022-11-23T01:11:39.009Z,1.96
2022-11-23T01:14:08.952Z,1.94
2022-11-23T01:16:39.444Z,1.95
2022-11-23T01:19:11.672Z,1.93
2022-11-23T01:21:40.829Z,1.93
2022-11-23T01:24:13.164Z,1.90
2022-11-23T01:26:42.472Z,1.88
2022-11-23T01:29:13.272Z,1.85
2022-11-23T01:31:46.432Z,1.82
2022-11-23T01:34:17.437Z,1.79
2022-11-23T01:36:46.993Z,1.45
2022-11-23T01:39:15.972Z,1.72
2022-11-23T01:41:46.439Z,1.69
2022-11-23T01:44:28.591Z,1.67
2022-11-23T01:47:00.406Z,1.67
2022-11-23T01:49:32.821Z,1.65
2022-11-23T01:52:06.091Z,1.60
2022-11-23T01:54:39.928Z,1.55
2022-11-23T01:57:13.846Z,1.51
2022-11-23T01:59:43.869Z,1.48
2022-11-23T02:02:13.775Z,1.43
2022-11-23T02:04:44.983Z,1.37
2022-11-23T02:07:18.131Z,1.32
2022-11-23T02:09:47.890Z,1.27
2022-11-23T02:12:17.056Z,1.26
2022-11-23T02:14:47.728Z,1.26
2022-11-23T02:17:16.469Z,1.23
2022-11-23T02:19:55.609Z,1.18
2022-11-23T02:22:30.538Z,1.16
2022-11-23T02:25:03.319Z,1.06
2022-11-23T02:27:34.033Z,1.08
2022-11-23T02:30:04.016Z,1.02
2022-11-23T02:32:33.089Z,0.96
2022-11-23T02:35:02.269Z,0.91
2022-11-23T02:37:30.946Z,0.87
2022-11-23T02:40:03.049Z,0.91
2022-11-23T02:42:37.922Z,0.87
2022-11-23T02:45:23.036Z,0.46
2022-11-23T02:47:51.725Z,0.62
2022-11-23T02:50:20.395Z,0.50
2022-11-23T02:52:49.261Z,0.41
2022-11-23T02:55:17.958Z,0.32
2022-11-23T02:57:47.933Z,0.25
2022-11-23T03:00:18.704Z,0.19
2022-11-23T03:02:47.504Z,0.17
2022-11-23T03:05:16.133Z,0.12
2022-11-23T03:07:44.848Z,0.08
2022-11-23T03:10:15.311Z,0.14
2022-11-23T03:12:48.048Z,0.15
2022-11-23T03:15:17.227Z,0.25
2022-11-23T03:17:45.862Z,0.37
2022-11-23T03:20:16.529Z,0.47
2022-11-23T03:22:48.176Z,0.53
2022-11-23T03:25:19.066Z,0.53
2022-11-23T03:27:52.279Z,0.51
2022-11-23T03:30:21.271Z,0.48
2022-11-23T03:32:50.830Z,0.52
2022-11-23T03:35:21.022Z,0.48
2022-11-23T03:38:09.667Z,0.40
2022-11-23T03:40:38.520Z,0.29
2022-11-23T03:43:19.662Z,0.22
2022-11-23T03:45:48.900Z,0.15
2022-11-23T03:48:17.997Z,0.15
2022-11-23T03:50:47.557Z,0.21
2022-11-23T03:53:17.091Z,0.22
2022-11-23T03:55:48.048Z,0.19
2022-11-23T03:58:18.565Z,0.13
2022-11-23T04:00:47.976Z,0.08
2022-11-23T04:03:17.778Z,0.05
2022-11-23T04:06:01.566Z,0.03
2022-11-23T04:09:02.096Z,0.03
2022-11-23T04:12:00.388Z,0.01
2022-11-23T04:14:30.707Z,0.04
2022-11-23T04:17:02.067Z,0.03
2022-11-23T04:19:32.169Z,0.01
2022-11-23T04:22:01.640Z,0.00
2022-11-23T04:24:35.829Z,0.00
2022-11-23T04:27:06.709Z,0.00
2022-11-23T04:29:36.728Z,0.04
2022-11-23T04:32:05.613Z,0.07
2022-11-23T04:34:35.657Z,0.13
2022-11-23T04:37:11.683Z,0.18
2022-11-23T04:39:42.817Z,0.23
2022-11-23T04:42:21.111Z,0.26
2022-11-23T04:44:59.217Z,0.32
2022-11-23T04:47:28.556Z,0.44
2022-11-23T04:50:01.080Z,0.46
2022-11-23T04:52:30.420Z,0.41
2022-11-23T04:55:00.170Z,0.39
2022-11-23T04:57:29.212Z,0.40
2022-11-23T05:00:00.348Z,0.45
2022-11-23T05:02:30.403Z,0.49
2022-11-23T05:05:11.745Z,0.57
2022-11-23T05:07:40.565Z,0.62
2022-11-23T05:10:10.262Z,0.66
2022-11-23T05:12:39.592Z,0.76
2022-11-23T05:15:14.254Z,0.86
2022-11-23T05:17:43.267Z,0.87
2022-11-23T05:20:18.146Z,0.87
2022-11-23T05:22:50.120Z,0.82
2022-11-23T05:25:22.915Z,0.77
2022-11-23T05:28:07.531Z,0.76
2022-11-23T05:30:49.685Z,0.76
2022-11-23T05:33:18.563Z,0.74
2022-11-23T05:35:47.445Z,0.78
2022-11-23T05:38:17.466Z,0.74
2022-11-23T05:40:47.394Z,0.79
2022-11-23T05:43:17.268Z,0.82
2022-11-23T05:45:46.327Z,0.85
2022-11-23T05:48:18.515Z,0.86
2022-11-23T05:51:05.264Z,0.90
2022-11-23T05:53:37.630Z,0.88
2022-11-23T05:56:16.008Z,0.88
2022-11-23T05:58:58.466Z,0.90
2022-11-23T06:01:27.726Z,0.97
2022-11-23T06:04:02.810Z,1.00
2022-11-23T06:06:38.180Z,1.03
2022-11-23T06:09:06.881Z,1.10
2022-11-23T06:11:37.777Z,1.15
2022-11-23T06:14:14.798Z,1.19
2022-11-23T06:16:46.554Z,1.23
2022-11-23T06:19:30.607Z,1.23
2022-11-23T06:22:00.370Z,1.23
2022-11-23T06:24:33.034Z,1.23
2022-11-23T06:27:21.880Z,1.26
2022-11-23T06:29:53.062Z,1.33
2022-11-23T06:32:23.501Z,1.35
2022-11-23T06:34:56.638Z,1.38
2022-11-23T06:37:29.589Z,1.41
2022-11-23T06:39:58.285Z,1.42
2022-11-23T06:42:43.335Z,1.42
2022-11-23T06:45:34.923Z,1.45
2022-11-23T06:48:08.240Z,1.48
2022-11-23T06:50:44.080Z,1.51
2022-11-23T06:53:13.249Z,1.55
2022-11-23T06:55:45.847Z,1.59
2022-11-23T06:58:17.516Z,1.66
2022-11-23T07:00:46.806Z,1.77
2022-11-23T07:03:21.541Z,1.86
2022-11-23T07:05:55.335Z,1.92
2022-11-23T07:08:28.362Z,2.00
2022-11-23T07:11:02.550Z,2.05
2022-11-23T07:13:31.646Z,2.08
2022-11-23T07:16:00.812Z,2.12
2022-11-23T07:18:29.703Z,2.16
2022-11-23T07:21:04.855Z,2.27
2022-11-23T07:23:38.698Z,2.38
2022-11-23T07:26:07.620Z,2.46
2022-11-23T07:28:36.247Z,2.52
2022-11-23T07:31:05.107Z,2.54
2022-11-23T07:33:34.660Z,2.56
2022-11-23T07:36:07.940Z,2.63
2022-11-23T07:38:38.325Z,2.65
2022-11-23T07:44:25.562Z,2.67
2022-11-23T07:46:58.706Z,2.72
2022-11-23T07:49:27.371Z,2.76
2022-11-23T07:51:57.258Z,2.81
2022-11-23T07:54:25.891Z,2.88
2022-11-23T07:56:54.511Z,2.94
2022-11-23T07:59:23.207Z,3.01
2022-11-23T08:01:55.699Z,3.08
2022-11-23T08:04:27.779Z,3.12
2022-11-23T08:06:57.936Z,3.18
2022-11-23T08:09:26.558Z,3.24
2022-11-23T08:11:55.116Z,3.29
2022-11-23T08:14:23.843Z,3.32
2022-11-23T08:16:52.710Z,3.33
2022-11-23T08:19:21.370Z,3.34
2022-11-23T08:21:50.058Z,3.37
2022-11-23T08:24:20.121Z,3.37
2022-11-23T08:26:48.776Z,3.39
2022-11-23T08:29:17.655Z,3.40
2022-11-23T08:31:46.333Z,3.38
2022-11-23T08:34:15.155Z,3.34
2022-11-23T08:36:43.838Z,3.33
2022-11-23T08:39:14.706Z,3.36
2022-11-23T08:41:44.972Z,3.38
2022-11-23T08:44:13.671Z,3.41
2022-11-23T08:46:43.386Z,3.42
2022-11-23T08:49:12.015Z,3.46
2022-11-23T08:51:42.481Z,3.46
2022-11-23T08:54:16.901Z,3.49
2022-11-23T08:56:46.969Z,3.55
2022-11-23T08:59:17.194Z,3.57
2022-11-23T09:01:46.103Z,3.61
2022-11-23T09:04:20.337Z,3.64
2022-11-23T09:06:49.390Z,3.28
2022-11-23T09:09:17.982Z,3.63
2022-11-23T09:11:48.325Z,3.70
2022-11-23T09:14:17.609Z,3.84
2022-11-23T09:16:46.233Z,3.96
2022-11-23T09:19:15.689Z,4.11
2022-11-23T09:21:44.349Z,4.23
2022-11-23T09:24:13.692Z,4.35
2022-11-23T09:26:42.564Z,4.46
2022-11-23T09:29:12.577Z,4.61
2022-11-23T09:31:41.329Z,4.77
2022-11-23T09:34:11.463Z,4.97
2022-11-23T09:36:40.207Z,5.14
2022-11-23T09:39:09.389Z,5.35
2022-11-23T09:41:55.176Z,5.56
2022-11-23T09:44:34.334Z,5.72
2022-11-23T09:47:19.644Z,5.84
2022-11-23T09:49:58.520Z,5.89
2022-11-23T09:52:27.585Z,5.97
2022-11-23T09:55:00.047Z,6.05
2022-11-23T09:57:31.769Z,6.12
2022-11-23T10:00:06.227Z,6.14
2022-11-23T10:02:40.641Z,6.14
2022-11-23T10:05:16.861Z,6.13
2022-11-23T10:07:59.150Z,6.11
2022-11-23T10:10:40.586Z,6.13
2022-11-23T10:13:30.780Z,6.11
2022-11-23T10:16:23.140Z,6.12
2022-11-23T10:19:03.138Z,6.16
2022-11-23T10:21:43.942Z,6.18
2022-11-23T10:24:21.704Z,6.20
2022-11-23T10:26:51.071Z,6.26
2022-11-23T10:29:30.268Z,6.34
2022-11-23T10:32:01.064Z,6.40
2022-11-23T10:34:49.724Z,6.48
2022-11-23T10:37:19.923Z,6.55
2022-11-23T10:39:48.817Z,6.62
2022-11-23T10:42:25.697Z,6.73
2022-11-23T10:44:58.347Z,6.81
2022-11-23T10:47:40.634Z,6.92
2022-11-23T10:50:24.756Z,7.01
2022-11-23T10:52:56.372Z,7.05
2022-11-23T10:55:30.231Z,7.04
2022-11-23T10:57:59.690Z,6.97
2022-11-23T11:00:31.256Z,6.89
2022-11-23T11:03:03.336Z,6.78
2022-11-23T11:08:31.301Z,6.55
2022-11-23T11:11:03.459Z,6.46
2022-11-23T11:13:33.732Z,6.37
2022-11-23T11:16:04.503Z,5.95
2022-11-23T11:18:36.759Z,6.26
2022-11-23T11:21:08.425Z,6.23
2022-11-23T11:23:42.273Z,6.22
2022-11-23T11:26:20.097Z,6.21
2022-11-23T11:28:51.610Z,6.24
2022-11-23T11:31:37.766Z,6.25
2022-11-23T11:34:17.712Z,6.30
2022-11-23T11:36:55.456Z,6.37
2022-11-23T11:39:31.008Z,6.40
2022-11-23T11:42:04.402Z,6.40
2022-11-23T11:44:37.980Z,6.41
2022-11-23T11:47:18.956Z,6.42
2022-11-23T11:49:53.478Z,6.45
2022-11-23T11:52:25.970Z,6.44
2022-11-23T11:55:02.769Z,6.41
2022-11-23T11:57:36.391Z,6.37
2022-11-23T12:00:11.736Z,6.36
2022-11-23T12:02:51.922Z,6.39
2022-11-23T12:05:25.811Z,6.04
2022-11-23T12:21:09.458Z,6.39
2022-11-23T12:23:48.121Z,6.59
2022-11-23T12:26:27.658Z,6.61
2022-11-23T12:29:19.152Z,6.65
2022-11-23T12:31:52.102Z,6.66
2022-11-23T12:34:41.516Z,6.65
2022-11-23T12:37:32.568Z,6.65
2022-11-23T12:40:31.071Z,6.69
2022-11-23T12:43:06.532Z,6.76
2022-11-23T12:45:50.214Z,6.85
2022-11-23T12:48:33.692Z,6.98
2022-11-23T12:51:15.663Z,7.17
2022-11-23T12:53:55.349Z,7.36
2022-11-23T12:56:49.254Z,7.49
2022-11-23T12:59:22.132Z,7.66
2022-11-23T13:01:57.781Z,7.79
2022-11-23T13:05:08.608Z,7.91
2022-11-23T13:08:10.877Z,7.99
2022-11-23T13:11:16.179Z,7.16
2022-11-23T13:13:59.505Z,8.09
2022-11-23T13:16:46.475Z,8.12
2022-11-23T13:19:54.852Z,8.16
2022-11-23T13:22:27.091Z,8.22
2022-11-23T13:25:36.191Z,8.28
2022-11-23T13:28:27.364Z,8.30
2022-11-23T13:31:21.265Z,8.37
2022-11-23T13:33:51.585Z,8.40
2022-11-23T13:40:03.833Z,8.49
2022-11-23T13:42:36.006Z,8.50
2022-11-23T13:45:36.802Z,8.49
2022-11-23T13:51:07.490Z,8.41
2022-11-23T13:53:38.278Z,8.38
2022-11-23T13:56:27.172Z,8.33
2022-11-23T13:58:57.364Z,8.29
2022-11-23T14:02:27.011Z,8.25
2022-11-23T14:05:32.842Z,8.21
2022-11-23T14:08:04.452Z,8.17
2022-11-23T14:10:48.702Z,8.15
2022-11-23T14:13:23.413Z,8.10
2022-11-23T14:15:58.684Z,8.04
2022-11-23T14:19:02.114Z,7.98
2022-11-23T14:21:40.841Z,7.94
2022-11-23T14:24:34.030Z,7.88
2022-11-23T14:27:46.767Z,7.82
2022-11-23T14:30:17.028Z,7.73
2022-11-23T14:33:04.110Z,7.68
2022-11-23T14:35:42.621Z,7.61
2022-11-23T14:38:43.426Z,7.53
2022-11-23T14:41:17.843Z,7.49
2022-11-23T14:43:48.177Z,7.45
2022-11-23T14:46:19.883Z,7.44
2022-11-23T14:48:49.367Z,7.44
2022-11-23T14:51:21.932Z,7.41
2022-11-23T14:53:52.979Z,7.37
2022-11-23T14:56:32.896Z,7.05
2022-11-23T14:59:06.890Z,7.21
2022-11-23T15:01:37.511Z,7.15
2022-11-23T15:04:13.784Z,7.13
2022-11-23T15:06:49.016Z,7.12
2022-11-23T15:09:33.494Z,7.03
2022-11-23T15:12:10.097Z,7.00
2022-11-23T15:14:45.376Z,6.92
2022-11-23T15:17:18.593Z,6.87
2022-11-23T15:19:56.226Z,6.82
2022-11-23T15:22:27.149Z,6.79
2022-11-23T15:25:06.776Z,6.73
2022-11-23T15:27:39.725Z,6.72
2022-11-23T15:30:18.608Z,6.73
2022-11-23T15:32:58.026Z,6.71
2022-11-23T15:35:32.778Z,6.64
2022-11-23T15:38:04.554Z,6.63
2022-11-23T15:40:36.562Z,6.62
2022-11-23T15:43:05.782Z,6.61
2022-11-23T15:46:02.600Z,6.57
2022-11-23T15:48:33.647Z,6.53
2022-11-23T15:51:05.377Z,6.50
2022-11-23T15:53:46.456Z,6.46
2022-11-23T15:56:25.187Z,6.43
2022-11-23T15:58:55.421Z,6.39
2022-11-23T16:01:24.420Z,6.35
2022-11-23T16:03:55.794Z,6.32
2022-11-23T16:06:38.050Z,6.27
2022-11-23T16:09:55.421Z,6.22
2022-11-23T16:12:29.442Z,6.19
2022-11-23T16:14:59.595Z,6.17
2022-11-23T16:17:29.574Z,6.16
2022-11-23T16:20:02.755Z,6.14
2022-11-23T16:22:35.873Z,6.13
2022-11-23T16:25:29.714Z,6.09
2022-11-23T16:28:01.865Z,6.07
2022-11-23T16:30:38.871Z,6.05
2022-11-23T16:33:14.228Z,6.01
2022-11-23T16:35:43.052Z,5.95
2022-11-23T16:38:12.642Z,5.89
2022-11-23T16:40:43.316Z,5.86
2022-11-23T16:43:12.781Z,5.76
2022-11-23T16:45:42.742Z,5.67
2022-11-23T16:48:39.357Z,5.59
2022-11-23T16:51:10.802Z,5.55
2022-11-23T16:54:11.285Z,5.49
2022-11-23T16:56:32.088Z,5.43
2022-11-23T16:59:01.893Z,5.39
2022-11-23T17:01:32.604Z,5.32
2022-11-23T17:04:01.630Z,5.30
2022-11-23T17:06:30.702Z,5.30
2022-11-23T17:09:04.738Z,5.28
2022-11-23T17:11:40.005Z,5.28
2022-11-23T17:14:14.965Z,5.26
2022-11-23T17:16:46.850Z,5.20
2022-11-23T17:19:17.077Z,5.14
2022-11-23T17:21:46.160Z,5.08
2022-11-23T17:24:15.297Z,5.00
2022-11-23T17:26:51.639Z,4.91
2022-11-23T17:29:21.693Z,4.84
2022-11-23T17:31:52.414Z,4.81
2022-11-23T17:34:21.387Z,4.76
2022-11-23T17:36:52.683Z,4.76
2022-11-23T17:39:25.338Z,4.77
2022-11-23T17:42:01.546Z,4.72
2022-11-23T17:44:33.156Z,4.67
2022-11-23T17:47:02.209Z,4.60
2022-11-23T17:49:31.248Z,4.55
2022-11-23T17:52:00.155Z,4.46
2022-11-23T17:54:28.832Z,4.36
2022-11-23T17:56:58.790Z,4.29
2022-11-23T17:59:27.534Z,4.27
2022-11-23T18:01:56.208Z,4.27
2022-11-23T18:04:24.972Z,4.25
2022-11-23T18:06:53.585Z,4.27
2022-11-23T18:09:22.396Z,4.26
2022-11-23T18:11:51.035Z,4.23
2022-11-23T18:14:22.145Z,4.20
2022-11-23T18:16:50.858Z,4.16
2022-11-23T18:19:19.453Z,4.13
2022-11-23T18:21:48.740Z,4.17
2022-11-23T18:24:17.676Z,4.18
2022-11-23T18:26:46.370Z,4.21
2022-11-23T18:29:17.274Z,4.23
2022-11-23T18:31:48.033Z,4.23
2022-11-23T18:34:17.055Z,4.22
2022-11-23T18:36:48.160Z,4.22
2022-11-23T18:39:17.554Z,4.22
2022-11-23T18:41:46.934Z,4.25
2022-11-23T18:44:16.017Z,4.24
2022-11-23T18:46:46.312Z,4.25
2022-11-23T18:49:15.952Z,4.26
2022-11-23T18:51:44.884Z,4.27
2022-11-23T18:54:13.669Z,4.29
2022-11-23T18:56:43.000Z,4.29
2022-11-23T18:59:23.978Z,4.31
2022-11-23T19:02:02.087Z,4.31
2022-11-23T19:04:32.542Z,4.31
2022-11-23T19:07:01.287Z,4.32
2022-11-23T19:09:30.591Z,4.30
2022-11-23T19:12:01.022Z,4.33
2022-11-23T19:14:29.789Z,4.39
2022-11-23T19:16:58.573Z,4.42
2022-11-23T19:19:28.669Z,4.42
2022-11-23T19:21:57.328Z,4.47
2022-11-23T19:24:25.967Z,4.44
2022-11-23T19:26:54.642Z,4.44
2022-11-23T19:29:25.025Z,4.40
2022-11-23T19:31:55.173Z,4.38
2022-11-23T19:34:24.183Z,4.34
2022-11-23T19:36:54.235Z,4.31
2022-11-23T19:39:23.195Z,4.30
2022-11-23T19:41:52.295Z,4.29
2022-11-23T19:44:20.949Z,4.25
2022-11-23T19:46:50.052Z,4.24
2022-11-23T19:49:18.922Z,4.22
2022-11-23T19:51:51.091Z,4.18
2022-11-23T19:54:21.250Z,4.14
2022-11-23T19:56:51.810Z,4.10
2022-11-23T19:59:20.481Z,4.08
2022-11-23T20:01:51.943Z,4.06
2022-11-23T20:04:20.598Z,4.02
2022-11-23T20:06:49.134Z,4.00
2022-11-23T20:09:21.163Z,4.00
2022-11-23T20:11:51.503Z,3.96
2022-11-23T20:14:20.664Z,3.93
2022-11-23T20:16:49.422Z,3.91
2022-11-23T20:19:18.088Z,3.90
2022-11-23T20:21:47.511Z,3.89
2022-11-23T20:24:16.564Z,3.92
2022-11-23T20:26:46.571Z,3.92
2022-11-23T20:29:15.323Z,3.88
2022-11-23T20:34:26.652Z,3.86
2022-11-23T20:36:55.207Z,3.88
2022-11-23T20:39:23.890Z,3.88
2022-11-23T20:41:54.010Z,3.87
2022-11-23T20:44:23.560Z,3.87
2022-11-23T20:47:07.570Z,3.90
2022-11-23T20:49:36.270Z,3.97
2022-11-23T20:52:05.551Z,3.99
2022-11-23T20:54:34.452Z,3.99
2022-11-23T20:57:04.558Z,3.96
2022-11-23T20:59:34.511Z,3.89
2022-11-23T21:02:03.372Z,3.90
2022-11-23T21:04:32.572Z,3.91
2022-11-23T21:07:01.597Z,3.94
2022-11-23T21:09:30.283Z,3.95
2022-11-23T21:12:16.213Z,3.97
2022-11-23T21:14:46.286Z,3.99
2022-11-23T21:17:14.922Z,3.98
2022-11-23T21:19:43.589Z,4.01
2022-11-23T21:22:14.889Z,3.95
2022-11-23T21:24:43.589Z,3.97
2022-11-23T21:27:14.124Z,4.01
2022-11-23T21:29:44.158Z,4.04
2022-11-23T21:32:15.136Z,4.06
2022-11-23T21:34:43.864Z,4.01
2022-11-23T21:37:13.534Z,4.03
2022-11-23T21:39:43.198Z,4.02
2022-11-23T21:42:14.287Z,4.05
2022-11-23T21:44:42.899Z,4.02
2022-11-23T21:47:13.085Z,4.02
2022-11-23T21:49:41.933Z,3.98
2022-11-23T21:52:10.614Z,3.95
2022-11-23T21:54:40.574Z,3.94
2022-11-23T21:57:10.864Z,3.87
2022-11-23T21:59:39.490Z,3.91
2022-11-23T22:02:11.838Z,3.90
2022-11-23T22:04:41.889Z,3.90
2022-11-23T22:07:10.641Z,3.88
2022-11-23T22:09:39.370Z,3.81
2022-11-23T22:12:08.377Z,3.75
2022-11-23T22:14:37.008Z,3.71
2022-11-23T22:17:05.732Z,3.67
2022-11-23T22:19:34.348Z,3.60
2022-11-23T22:22:05.652Z,3.62
2022-11-23T22:24:34.622Z,3.64
2022-11-23T22:27:03.551Z,3.68
2022-11-23T22:29:32.213Z,3.68
2022-11-23T22:32:00.878Z,3.61
2022-11-23T22:34:35.300Z,3.58
2022-11-23T22:37:10.183Z,3.54
2022-11-23T22:39:39.275Z,3.53
2022-11-23T22:42:08.463Z,3.50
2022-11-23T22:44:37.133Z,3.46
2022-11-23T22:47:05.838Z,3.38
2022-11-23T22:49:34.484Z,3.33
2022-11-23T22:52:04.605Z,3.26
2022-11-23T22:54:33.435Z,3.17
2022-11-23T22:57:02.241Z,3.04
2022-11-23T22:59:30.954Z,2.92
2022-11-23T23:01:59.961Z,2.81
2022-11-23T23:04:29.448Z,2.71
2022-11-23T23:06:58.089Z,2.59
2022-11-23T23:09:28.190Z,2.54
2022-11-23T23:11:56.864Z,2.49
2022-11-23T23:14:25.469Z,2.40
2022-11-23T23:16:54.230Z,2.37
2022-11-23T23:19:23.323Z,2.36
2022-11-23T23:21:51.968Z,2.38
2022-11-23T23:24:21.113Z,2.42
2022-11-23T23:26:51.102Z,2.50
2022-11-23T23:29:19.875Z,2.55
2022-11-23T23:31:48.612Z,2.62
2022-11-23T23:34:17.702Z,2.67
2022-11-23T23:36:46.325Z,2.70
2022-11-23T23:39:15.360Z,2.72
2022-11-23T23:41:43.973Z,2.75
2022-11-23T23:44:13.942Z,2.79
2022-11-23T23:46:44.585Z,2.84
2022-11-23T23:49:13.222Z,2.84
2022-11-23T23:51:41.901Z,2.85
2022-11-23T23:54:10.561Z,2.85
2022-11-23T23:56:39.207Z,2.83
2022-11-23T23:59:07.952Z,2.79
